createdAt,value
2022-10-08T00:01:10.521Z,12.48
2022-10-08T00:03:39.856Z,12.45
2022-10-08T00:06:11.055Z,12.46
2022-10-08T00:08:39.017Z,12.42
2022-10-08T00:11:12.479Z,12.43
2022-10-08T00:13:42.195Z,12.44
2022-10-08T00:16:12.587Z,12.45
2022-10-08T00:18:43.988Z,12.45
2022-10-08T00:21:16.561Z,12.49
2022-10-08T00:23:44.378Z,12.48
2022-10-08T00:26:11.209Z,12.47
2022-10-08T00:28:41.533Z,12.45
2022-10-08T00:31:11.068Z,12.47
2022-10-08T00:33:38.412Z,12.41
2022-10-08T00:36:08.226Z,12.44
2022-10-08T00:38:35.556Z,12.51
2022-10-08T00:41:05.392Z,12.53
2022-10-08T00:43:41.099Z,12.44
2022-10-08T00:46:26.638Z,12.45
2022-10-08T00:48:57.090Z,12.38
2022-10-08T00:51:24.418Z,12.38
2022-10-08T00:53:52.536Z,12.35
2022-10-08T00:56:21.635Z,12.33
2022-10-08T00:58:50.126Z,12.31
2022-10-08T01:01:17.306Z,12.31
2022-10-08T01:03:43.747Z,12.30
2022-10-08T01:06:31.601Z,12.28
2022-10-08T01:09:18.878Z,12.31
2022-10-08T01:12:06.560Z,12.21
2022-10-08T01:15:02.114Z,12.16
2022-10-08T01:17:42.666Z,12.13
2022-10-08T01:20:29.408Z,12.16
2022-10-08T01:23:14.219Z,12.19
2022-10-08T01:25:57.657Z,12.13
2022-10-08T01:28:36.506Z,12.09
2022-10-08T01:31:18.930Z,12.06
2022-10-08T01:33:51.530Z,12.08
2022-10-08T01:36:21.573Z,12.05
2022-10-08T01:38:56.011Z,12.02
2022-10-08T01:41:25.488Z,12.00
2022-10-08T01:44:01.872Z,12.03
2022-10-08T01:46:31.840Z,12.03
2022-10-08T01:49:04.501Z,11.98
2022-10-08T01:51:44.345Z,11.98
2022-10-08T01:54:16.353Z,11.97
2022-10-08T01:56:47.036Z,11.93
2022-10-08T01:59:18.127Z,11.90
2022-10-08T02:01:50.947Z,11.94
2022-10-08T02:04:35.648Z,11.89
2022-10-08T02:07:16.913Z,11.88
2022-10-08T02:09:48.072Z,11.89
2022-10-08T02:12:14.620Z,11.86
2022-10-08T02:14:43.481Z,11.97
2022-10-08T02:17:35.714Z,11.99
2022-10-08T02:20:07.992Z,11.90
2022-10-08T02:22:51.239Z,11.89
2022-10-08T02:25:47.312Z,11.88
2022-10-08T02:28:16.774Z,11.87
2022-10-08T02:30:50.554Z,11.83
2022-10-08T02:33:24.060Z,11.84
2022-10-08T02:35:55.778Z,11.86
2022-10-08T02:38:48.701Z,11.82
2022-10-08T02:41:18.583Z,11.79
2022-10-08T02:43:47.825Z,11.80
2022-10-08T02:46:21.047Z,11.78
2022-10-08T02:48:56.417Z,11.75
2022-10-08T02:51:24.737Z,11.70
2022-10-08T02:53:51.176Z,11.68
2022-10-08T02:56:28.833Z,11.69
2022-10-08T02:58:55.860Z,11.63
2022-10-08T03:01:30.558Z,11.61
2022-10-08T03:04:24.385Z,11.60
2022-10-08T03:06:53.106Z,11.55
2022-10-08T03:09:22.572Z,11.54
2022-10-08T03:11:49.621Z,11.54
2022-10-08T03:14:18.294Z,11.54
2022-10-08T03:16:47.013Z,11.56
2022-10-08T03:19:16.613Z,11.54
2022-10-08T03:21:45.611Z,11.54
2022-10-08T03:24:13.737Z,11.55
2022-10-08T03:26:40.920Z,11.55
2022-10-08T03:29:09.110Z,11.56
2022-10-08T03:31:35.885Z,11.60
2022-10-08T03:34:02.463Z,11.60
2022-10-08T03:36:29.426Z,11.56
2022-10-08T03:38:55.932Z,11.59
2022-10-08T03:41:22.292Z,11.58
2022-10-08T03:43:48.697Z,11.59
2022-10-08T03:46:15.411Z,11.59
2022-10-08T03:48:42.656Z,11.61
2022-10-08T03:51:12.548Z,11.60
2022-10-08T03:53:41.459Z,11.64
2022-10-08T03:56:13.293Z,11.64
2022-10-08T03:58:39.716Z,11.66
2022-10-08T04:01:10.585Z,11.59
2022-10-08T04:03:39.412Z,11.60
2022-10-08T04:06:06.097Z,11.63
2022-10-08T04:08:34.044Z,11.63
2022-10-08T04:11:06.957Z,11.62
2022-10-08T04:13:34.858Z,11.60
2022-10-08T04:16:12.950Z,11.65
2022-10-08T04:18:40.729Z,11.71
2022-10-08T04:21:10.348Z,11.71
2022-10-08T04:23:38.471Z,11.77
2022-10-08T04:26:05.983Z,11.73
2022-10-08T04:28:37.576Z,11.73
2022-10-08T04:31:07.451Z,11.77
2022-10-08T04:33:35.325Z,11.86
2022-10-08T04:36:07.035Z,11.84
2022-10-08T04:38:33.481Z,11.84
2022-10-08T04:41:11.191Z,11.84
2022-10-08T04:43:39.224Z,11.89
2022-10-08T04:46:08.326Z,11.90
2022-10-08T04:48:35.304Z,11.90
2022-10-08T04:51:08.102Z,11.94
2022-10-08T04:53:36.725Z,11.97
2022-10-08T04:56:21.400Z,11.96
2022-10-08T04:58:48.344Z,11.97
2022-10-08T05:01:17.275Z,11.96
2022-10-08T05:03:54.451Z,11.96
2022-10-08T05:06:22.163Z,12.01
2022-10-08T05:08:48.572Z,12.02
2022-10-08T05:11:16.168Z,12.05
2022-10-08T05:13:43.062Z,12.04
2022-10-08T05:16:12.461Z,12.04
2022-10-08T05:18:42.738Z,12.08
2022-10-08T05:21:12.705Z,12.07
2022-10-08T05:23:39.662Z,12.10
2022-10-08T05:26:16.721Z,12.13
2022-10-08T05:28:43.950Z,12.19
2022-10-08T05:31:10.466Z,12.16
2022-10-08T05:33:36.907Z,12.17
2022-10-08T05:36:05.409Z,12.14
2022-10-08T05:38:34.945Z,12.14
2022-10-08T05:41:17.641Z,12.14
2022-10-08T05:43:44.997Z,12.15
2022-10-08T05:46:11.708Z,12.14
2022-10-08T05:48:38.972Z,12.16
2022-10-08T05:51:16.829Z,12.21
2022-10-08T05:53:47.062Z,12.15
2022-10-08T05:56:16.016Z,12.26
2022-10-08T05:58:43.375Z,12.21
2022-10-08T06:01:14.372Z,12.30
2022-10-08T06:03:41.713Z,12.25
2022-10-08T06:06:10.741Z,12.28
2022-10-08T06:08:38.382Z,12.24
2022-10-08T06:11:06.862Z,12.28
2022-10-08T06:13:34.211Z,12.21
2022-10-08T06:16:11.789Z,12.30
2022-10-08T06:18:40.548Z,12.34
2022-10-08T06:21:09.911Z,12.34
2022-10-08T06:23:37.095Z,12.34
2022-10-08T06:26:08.986Z,12.41
2022-10-08T06:28:37.321Z,12.44
2022-10-08T06:31:04.992Z,12.45
2022-10-08T06:33:31.494Z,12.48
2022-10-08T06:36:13.826Z,12.49
2022-10-08T06:38:40.677Z,12.54
2022-10-08T06:41:07.374Z,12.58
2022-10-08T06:43:33.843Z,12.58
2022-10-08T06:46:04.706Z,12.58
2022-10-08T06:48:31.488Z,12.60
2022-10-08T06:51:07.320Z,12.63
2022-10-08T06:53:34.271Z,12.66
2022-10-08T06:56:03.618Z,12.69
2022-10-08T06:58:30.507Z,12.75
2022-10-08T07:01:32.932Z,12.71
2022-10-08T07:04:00.928Z,12.75
2022-10-08T07:06:27.505Z,12.80
2022-10-08T07:08:54.807Z,12.85
2022-10-08T07:11:22.409Z,12.85
2022-10-08T07:13:48.834Z,12.91
2022-10-08T07:16:20.975Z,12.93
2022-10-08T07:18:51.954Z,12.96
2022-10-08T07:21:21.058Z,13.07
2022-10-08T07:23:47.799Z,13.09
2022-10-08T07:26:16.628Z,13.14
2022-10-08T07:28:49.464Z,13.20
2022-10-08T07:31:19.444Z,13.20
2022-10-08T07:33:46.082Z,13.25
2022-10-08T07:36:16.713Z,13.32
2022-10-08T07:38:43.967Z,13.40
2022-10-08T07:41:12.149Z,13.46
2022-10-08T07:43:41.203Z,13.52
2022-10-08T07:46:09.379Z,13.52
2022-10-08T07:48:38.541Z,13.51
2022-10-08T07:51:16.461Z,13.54
2022-10-08T07:53:43.828Z,13.60
2022-10-08T07:56:12.893Z,13.62
2022-10-08T07:58:40.287Z,13.68
2022-10-08T08:01:10.999Z,13.81
2022-10-08T08:03:37.999Z,13.84
2022-10-08T08:06:09.139Z,13.97
2022-10-08T08:08:37.189Z,14.06
2022-10-08T08:11:05.413Z,14.08
2022-10-08T08:13:36.931Z,14.16
2022-10-08T08:16:10.117Z,14.20
2022-10-08T08:18:39.422Z,14.21
2022-10-08T08:21:15.704Z,14.38
2022-10-08T08:23:45.226Z,14.33
2022-10-08T08:26:20.369Z,14.42
2022-10-08T08:28:52.070Z,14.34
2022-10-08T08:31:24.905Z,14.39
2022-10-08T08:33:54.243Z,14.38
2022-10-08T08:36:24.669Z,14.44
2022-10-08T08:38:51.157Z,14.49
2022-10-08T08:41:28.848Z,14.50
2022-10-08T08:44:03.168Z,14.58
2022-10-08T08:46:33.873Z,14.59
2022-10-08T08:49:07.811Z,14.64
2022-10-08T08:51:34.608Z,14.82
2022-10-08T08:54:01.638Z,14.88
2022-10-08T08:56:29.365Z,14.92
2022-10-08T08:59:05.740Z,15.07
2022-10-08T09:01:37.074Z,15.26
2022-10-08T09:04:09.924Z,15.41
2022-10-08T09:06:39.453Z,15.53
2022-10-08T09:09:27.156Z,15.61
2022-10-08T09:11:54.382Z,16.46
2022-10-08T09:14:42.206Z,16.48
2022-10-08T09:17:23.852Z,16.53
2022-10-08T09:19:50.623Z,16.62
2022-10-08T09:22:22.286Z,16.49
2022-10-08T09:24:53.635Z,16.62
2022-10-08T09:27:20.201Z,16.57
2022-10-08T09:29:46.815Z,16.42
2022-10-08T09:32:19.014Z,16.64
2022-10-08T09:34:48.202Z,17.26
2022-10-08T09:37:21.137Z,17.98
2022-10-08T09:40:11.361Z,19.07
2022-10-08T09:42:38.220Z,18.34
2022-10-08T09:45:35.070Z,17.82
2022-10-08T09:48:25.494Z,17.70
2022-10-08T09:50:58.786Z,17.40
2022-10-08T09:53:29.176Z,17.45
2022-10-08T09:56:08.776Z,17.38
2022-10-08T09:58:47.713Z,17.28
2022-10-08T10:01:16.419Z,17.36
2022-10-08T10:03:54.959Z,17.57
2022-10-08T10:06:30.495Z,17.76
2022-10-08T10:09:10.949Z,18.29
2022-10-08T10:11:48.387Z,18.77
2022-10-08T10:14:27.235Z,19.03
2022-10-08T10:17:01.006Z,19.67
2022-10-08T10:19:36.995Z,19.42
2022-10-08T10:22:12.213Z,19.11
2022-10-08T10:24:45.712Z,18.82
2022-10-08T10:27:42.177Z,17.91
2022-10-08T10:30:21.923Z,17.93
2022-10-08T10:33:15.634Z,18.40
2022-10-08T10:35:50.379Z,18.01
2022-10-08T10:38:25.049Z,17.45
2022-10-08T10:41:07.093Z,17.63
2022-10-08T10:43:58.504Z,17.36
2022-10-08T10:46:28.349Z,17.98
2022-10-08T10:48:56.337Z,17.96
2022-10-08T10:51:34.667Z,19.02
2022-10-08T10:54:22.335Z,19.65
2022-10-08T10:56:58.019Z,19.51
2022-10-08T10:59:39.818Z,20.00
2022-10-08T11:02:28.192Z,21.17
2022-10-08T11:05:17.112Z,21.16
2022-10-08T11:08:08.379Z,21.46
2022-10-08T11:10:53.667Z,21.79
2022-10-08T11:13:47.442Z,21.80
2022-10-08T11:16:45.868Z,21.25
2022-10-08T11:19:49.303Z,20.96
2022-10-08T11:22:18.707Z,20.60
2022-10-08T11:25:20.668Z,20.20
2022-10-08T11:28:03.531Z,20.77
2022-10-08T11:30:45.389Z,21.27
2022-10-08T11:33:15.308Z,21.45
2022-10-08T11:35:47.400Z,21.56
2022-10-08T11:38:36.200Z,21.01
2022-10-08T11:41:12.047Z,20.29
2022-10-08T11:43:48.816Z,21.12
2022-10-08T11:46:29.815Z,21.09
2022-10-08T11:49:01.671Z,20.63
2022-10-08T11:51:31.743Z,20.70
2022-10-08T11:54:12.703Z,20.25
2022-10-08T11:56:42.788Z,20.75
2022-10-08T11:59:32.589Z,20.14
2022-10-08T12:02:02.158Z,19.07
2022-10-08T12:04:33.565Z,19.42
2022-10-08T12:07:15.227Z,20.55
2022-10-08T12:10:23.442Z,20.91
2022-10-08T12:12:50.435Z,20.65
2022-10-08T12:15:27.614Z,20.15
2022-10-08T12:17:56.738Z,19.29
2022-10-08T12:20:26.385Z,20.06
2022-10-08T12:23:10.627Z,19.92
2022-10-08T12:25:45.953Z,19.45
2022-10-08T12:28:24.559Z,19.64
2022-10-08T12:30:56.033Z,19.37
2022-10-08T12:33:24.577Z,18.87
2022-10-08T12:36:03.441Z,18.53
2022-10-08T12:38:39.341Z,18.16
2022-10-08T12:41:22.623Z,18.23
2022-10-08T12:44:13.385Z,18.04
2022-10-08T12:46:53.948Z,18.03
2022-10-08T12:49:32.629Z,18.16
2022-10-08T12:52:15.475Z,18.15
2022-10-08T12:54:52.410Z,18.44
2022-10-08T12:57:37.350Z,19.13
2022-10-08T13:00:31.088Z,18.89
2022-10-08T13:03:02.321Z,19.02
2022-10-08T13:05:43.699Z,18.82
2022-10-08T13:08:39.777Z,18.78
2022-10-08T13:11:13.615Z,19.35
2022-10-08T13:13:39.977Z,19.40
2022-10-08T13:16:14.954Z,19.17
2022-10-08T13:18:50.394Z,18.91
2022-10-08T13:21:32.082Z,19.04
2022-10-08T13:23:59.855Z,19.69
2022-10-08T13:26:49.759Z,20.00
2022-10-08T13:29:37.218Z,20.22
2022-10-08T13:32:12.830Z,19.92
2022-10-08T13:34:39.241Z,20.49
2022-10-08T13:37:31.786Z,20.74
2022-10-08T13:39:59.585Z,21.58
2022-10-08T13:42:29.701Z,22.00
2022-10-08T13:44:58.998Z,22.18
2022-10-08T13:47:27.035Z,22.66
2022-10-08T13:49:55.580Z,22.78
2022-10-08T13:52:24.657Z,22.52
2022-10-08T13:54:56.706Z,22.37
2022-10-08T13:57:23.127Z,23.20
2022-10-08T13:59:52.414Z,22.86
2022-10-08T14:02:18.921Z,22.85
2022-10-08T14:04:45.415Z,23.20
2022-10-08T14:07:23.921Z,22.69
2022-10-08T14:09:52.077Z,23.07
2022-10-08T14:12:30.040Z,23.38
2022-10-08T14:14:57.395Z,23.22
2022-10-08T14:17:23.947Z,22.46
2022-10-08T14:19:51.556Z,21.96
2022-10-08T14:22:18.888Z,21.52
2022-10-08T14:24:45.571Z,21.88
2022-10-08T14:27:12.000Z,22.08
2022-10-08T14:29:38.403Z,21.61
2022-10-08T14:32:05.542Z,21.68
2022-10-08T14:34:32.028Z,21.68
2022-10-08T14:36:58.481Z,21.33
2022-10-08T14:39:28.596Z,21.61
2022-10-08T14:41:55.052Z,21.78
2022-10-08T14:44:23.440Z,21.87
2022-10-08T14:46:52.882Z,21.50
2022-10-08T14:49:20.685Z,21.46
2022-10-08T14:51:47.632Z,21.24
2022-10-08T14:54:14.113Z,21.63
2022-10-08T14:56:44.135Z,21.17
2022-10-08T14:59:11.290Z,21.10
2022-10-08T15:01:37.909Z,21.61
2022-10-08T15:04:04.898Z,21.62
2022-10-08T15:06:31.690Z,21.53
2022-10-08T15:08:58.221Z,21.21
2022-10-08T15:11:24.834Z,21.24
2022-10-08T15:13:55.359Z,21.41
2022-10-08T15:16:21.870Z,21.24
2022-10-08T15:18:48.496Z,21.21
2022-10-08T15:21:16.244Z,20.95
2022-10-08T15:23:42.756Z,20.16
2022-10-08T15:26:14.664Z,20.48
2022-10-08T15:28:43.134Z,20.30
2022-10-08T15:31:18.272Z,20.13
2022-10-08T15:33:47.382Z,19.93
2022-10-08T15:36:21.833Z,19.82
2022-10-08T15:38:54.330Z,19.71
2022-10-08T15:41:20.904Z,19.60
2022-10-08T15:43:47.297Z,19.11
2022-10-08T15:46:18.740Z,18.82
2022-10-08T15:48:56.284Z,18.64
2022-10-08T15:51:24.567Z,18.40
2022-10-08T15:53:51.410Z,18.15
2022-10-08T15:56:17.820Z,17.74
2022-10-08T15:58:51.964Z,17.29
2022-10-08T16:01:21.682Z,17.25
2022-10-08T16:03:50.564Z,17.21
2022-10-08T16:06:19.811Z,17.13
2022-10-08T16:08:46.719Z,16.93
2022-10-08T16:11:15.406Z,16.85
2022-10-08T16:13:43.656Z,16.96
2022-10-08T16:16:14.770Z,16.78
2022-10-08T16:18:41.700Z,16.71
2022-10-08T16:21:08.441Z,16.65
2022-10-08T16:23:37.549Z,16.47
2022-10-08T16:26:06.800Z,16.23
2022-10-08T16:28:35.786Z,16.17
2022-10-08T16:31:02.626Z,16.08
2022-10-08T16:33:29.146Z,15.90
2022-10-08T16:35:55.700Z,15.80
2022-10-08T16:38:22.554Z,15.63
2022-10-08T16:40:48.945Z,15.23
2022-10-08T16:43:15.345Z,15.07
2022-10-08T16:45:41.722Z,15.04
2022-10-08T16:48:08.402Z,14.82
2022-10-08T16:50:42.081Z,14.51
2022-10-08T16:53:09.420Z,14.33
2022-10-08T16:55:37.653Z,14.23
2022-10-08T16:58:05.681Z,14.02
2022-10-08T17:00:35.195Z,13.85
2022-10-08T17:03:01.788Z,13.77
2022-10-08T17:05:28.203Z,13.74
2022-10-08T17:07:54.785Z,13.59
2022-10-08T17:10:21.100Z,13.39
2022-10-08T17:12:47.837Z,13.37
2022-10-08T17:15:14.434Z,13.31
2022-10-08T17:17:40.795Z,13.13
2022-10-08T17:20:07.822Z,13.06
2022-10-08T17:22:34.229Z,13.11
2022-10-08T17:25:00.927Z,13.01
2022-10-08T17:27:27.379Z,12.98
2022-10-08T17:29:53.784Z,12.93
2022-10-08T17:32:20.202Z,12.81
2022-10-08T17:34:46.645Z,12.65
2022-10-08T17:37:13.066Z,12.51
2022-10-08T17:39:39.497Z,12.56
2022-10-08T17:42:07.314Z,12.61
2022-10-08T17:44:34.329Z,12.59
2022-10-08T17:47:00.750Z,12.51
2022-10-08T17:49:28.242Z,12.40
2022-10-08T17:51:55.358Z,12.31
2022-10-08T17:54:22.736Z,12.30
2022-10-08T17:56:49.614Z,12.19
2022-10-08T17:59:18.432Z,12.11
2022-10-08T18:01:45.888Z,12.10
2022-10-08T18:04:15.615Z,12.10
2022-10-08T18:06:43.857Z,12.10
2022-10-08T18:09:16.296Z,11.91
2022-10-08T18:11:45.345Z,11.96
2022-10-08T18:14:12.503Z,11.93
2022-10-08T18:16:39.012Z,11.91
2022-10-08T18:19:08.933Z,11.84
2022-10-08T18:21:35.657Z,11.86
2022-10-08T18:24:02.194Z,11.76
2022-10-08T18:26:34.394Z,11.70
2022-10-08T18:29:04.073Z,11.66
2022-10-08T18:31:32.804Z,11.68
2022-10-08T18:34:03.019Z,11.61
2022-10-08T18:36:32.295Z,11.47
2022-10-08T18:39:01.159Z,11.50
2022-10-08T18:41:31.104Z,11.46
2022-10-08T18:44:01.156Z,11.38
2022-10-08T18:46:28.207Z,11.36
2022-10-08T18:48:55.674Z,11.31
2022-10-08T18:51:27.861Z,11.17
2022-10-08T18:53:56.344Z,11.17
2022-10-08T18:56:31.765Z,11.10
2022-10-08T18:59:01.717Z,10.99
2022-10-08T19:01:31.150Z,11.00
2022-10-08T19:04:00.454Z,10.90
2022-10-08T19:06:29.607Z,10.84
2022-10-08T19:08:57.113Z,10.96
2022-10-08T19:11:28.399Z,10.87
2022-10-08T19:13:55.710Z,10.82
2022-10-08T19:16:22.273Z,10.71
2022-10-08T19:18:51.499Z,10.82
2022-10-08T19:21:17.980Z,10.82
2022-10-08T19:23:45.193Z,10.61
2022-10-08T19:26:11.761Z,10.65
2022-10-08T19:28:39.101Z,10.47
2022-10-08T19:31:12.963Z,10.49
2022-10-08T19:33:39.515Z,10.67
2022-10-08T19:36:06.119Z,10.53
2022-10-08T19:38:32.842Z,10.43
2022-10-08T19:40:59.244Z,10.46
2022-10-08T19:43:25.753Z,10.37
2022-10-08T19:45:52.220Z,10.39
2022-10-08T19:48:18.624Z,10.38
2022-10-08T19:50:45.232Z,10.21
2022-10-08T19:53:11.824Z,10.20
2022-10-08T19:55:38.306Z,10.20
2022-10-08T19:58:04.976Z,10.07
2022-10-08T20:00:31.808Z,10.02
2022-10-08T20:02:58.269Z,9.92
2022-10-08T20:05:24.937Z,9.98
2022-10-08T20:07:51.613Z,10.07
2022-10-08T20:10:18.010Z,9.99
2022-10-08T20:12:44.635Z,9.88
2022-10-08T20:15:11.295Z,9.87
2022-10-08T20:17:37.808Z,9.86
2022-10-08T20:20:20.870Z,9.78
2022-10-08T20:22:51.719Z,9.80
2022-10-08T20:25:20.400Z,9.69
2022-10-08T20:27:47.746Z,9.59
2022-10-08T20:30:15.517Z,9.64
2022-10-08T20:32:42.124Z,9.67
2022-10-08T20:35:08.847Z,9.63
2022-10-08T20:37:35.284Z,9.50
2022-10-08T20:40:01.734Z,9.50
2022-10-08T20:42:28.813Z,9.58
2022-10-08T20:44:55.489Z,9.51
2022-10-08T20:47:21.877Z,9.54
2022-10-08T20:49:48.257Z,9.51
2022-10-08T20:52:14.688Z,9.47
2022-10-08T20:54:41.146Z,9.45
2022-10-08T20:57:07.634Z,9.39
2022-10-08T20:59:34.135Z,9.39
2022-10-08T21:02:00.633Z,9.32
2022-10-08T21:04:27.006Z,9.30
2022-10-08T21:06:53.501Z,9.19
2022-10-08T21:09:21.755Z,9.16
2022-10-08T21:11:48.201Z,9.16
2022-10-08T21:14:18.151Z,9.29
2022-10-08T21:16:44.981Z,9.20
2022-10-08T21:19:14.612Z,9.13
2022-10-08T21:21:41.480Z,9.19
2022-10-08T21:24:09.192Z,9.07
2022-10-08T21:26:38.287Z,9.01
2022-10-08T21:29:07.244Z,8.99
2022-10-08T21:31:35.497Z,8.95
2022-10-08T21:34:02.537Z,9.04
2022-10-08T21:36:35.035Z,8.96
2022-10-08T21:39:02.722Z,8.93
2022-10-08T21:41:31.603Z,8.87
2022-10-08T21:44:00.665Z,8.78
2022-10-08T21:46:29.750Z,8.78
2022-10-08T21:48:59.874Z,8.75
2022-10-08T21:51:27.884Z,8.88
2022-10-08T21:53:56.705Z,8.73
2022-10-08T21:56:25.895Z,8.68
2022-10-08T21:59:00.847Z,8.65
2022-10-08T22:01:30.277Z,8.60
2022-10-08T22:04:01.051Z,8.61
2022-10-08T22:06:29.281Z,8.60
2022-10-08T22:08:56.305Z,8.47
2022-10-08T22:11:23.190Z,8.47
2022-10-08T22:13:49.929Z,8.53
2022-10-08T22:16:18.939Z,8.55
2022-10-08T22:18:46.159Z,8.54
2022-10-08T22:21:15.697Z,8.50
2022-10-08T22:23:42.753Z,8.44
2022-10-08T22:26:15.043Z,8.46
2022-10-08T22:28:41.985Z,8.48
2022-10-08T22:31:10.380Z,8.50
2022-10-08T22:33:37.122Z,8.39
2022-10-08T22:36:04.961Z,8.32
2022-10-08T22:38:32.960Z,8.31
2022-10-08T22:41:13.607Z,8.32
2022-10-08T22:43:41.004Z,8.29
2022-10-08T22:46:18.527Z,8.42
2022-10-08T22:48:45.343Z,8.28
2022-10-08T22:51:21.873Z,8.23
2022-10-08T22:53:48.981Z,8.33
2022-10-08T22:56:19.309Z,8.28
2022-10-08T22:58:46.375Z,8.33
2022-10-08T23:01:15.395Z,8.32
2022-10-08T23:03:42.049Z,8.37
2022-10-08T23:06:13.113Z,8.44
2022-10-08T23:08:39.794Z,8.44
2022-10-08T23:11:06.185Z,8.51
2022-10-08T23:13:32.949Z,8.48
2022-10-08T23:16:02.520Z,8.51
2022-10-08T23:18:33.594Z,8.44
2022-10-08T23:21:17.253Z,8.40
2022-10-08T23:23:45.191Z,8.42
2022-10-08T23:26:12.351Z,8.54
2022-10-08T23:28:39.945Z,8.48
2022-10-08T23:31:15.298Z,8.49
2022-10-08T23:33:45.170Z,8.47
2022-10-08T23:36:17.775Z,8.48
2022-10-08T23:38:44.364Z,8.50
2022-10-08T23:41:12.148Z,8.60
2022-10-08T23:43:41.217Z,8.61
2022-10-08T23:46:09.270Z,8.61
2022-10-08T23:48:35.793Z,8.59
2022-10-08T23:51:03.096Z,8.56
2022-10-08T23:53:29.764Z,8.49
2022-10-08T23:55:56.173Z,8.37
2022-10-08T23:58:22.932Z,8.37
